sensor_id;sensor_type;location;lat;lon;timestamp;P1;durP1;ratioP1;P2;durP2;ratioP2
39656;SDS011;25337;51.478;7.510;2023-11-21T00:00:17;25.85;;;11.23;;
39656;SDS011;25337;51.478;7.510;2023-11-21T00:02:43;25.90;;;10.48;;
39656;SDS011;25337;51.478;7.510;2023-11-21T00:05:11;26.70;;;11.02;;
39656;SDS011;25337;51.478;7.510;2023-11-21T00:07:39;28.52;;;11.52;;
39656;SDS011;25337;51.478;7.510;2023-11-21T00:10:05;29.42;;;11.73;;
39656;SDS011;25337;51.478;7.510;2023-11-21T00:12:31;26.10;;;11.65;;
39656;SDS011;25337;51.478;7.510;2023-11-21T00:14:58;26.27;;;12.25;;
39656;SDS011;25337;51.478;7.510;2023-11-21T00:17:24;28.48;;;12.38;;
39656;SDS011;25337;51.478;7.510;2023-11-21T00:19:50;28.25;;;12.70;;
39656;SDS011;25337;51.478;7.510;2023-11-21T00:22:19;32.13;;;12.30;;
39656;SDS011;25337;51.478;7.510;2023-11-21T00:24:44;23.60;;;10.77;;
39656;SDS011;25337;51.478;7.510;2023-11-21T00:27:10;26.75;;;11.30;;
39656;SDS011;25337;51.478;7.510;2023-11-21T00:29:36;25.67;;;12.15;;
39656;SDS011;25337;51.478;7.510;2023-11-21T00:32:03;26.30;;;11.63;;
39656;SDS011;25337;51.478;7.510;2023-11-21T00:34:30;33.78;;;11.15;;
39656;SDS011;25337;51.478;7.510;2023-11-21T00:36:56;26.23;;;10.60;;
39656;SDS011;25337;51.478;7.510;2023-11-21T00:39:22;30.17;;;10.20;;
39656;SDS011;25337;51.478;7.510;2023-11-21T00:41:47;27.08;;;10.20;;
39656;SDS011;25337;51.478;7.510;2023-11-21T00:44:13;25.05;;;10.57;;
39656;SDS011;25337;51.478;7.510;2023-11-21T00:46:39;25.35;;;9.90;;
39656;SDS011;25337;51.478;7.510;2023-11-21T00:49:04;24.08;;;9.32;;
39656;SDS011;25337;51.478;7.510;2023-11-21T00:51:30;25.73;;;9.05;;
39656;SDS011;25337;51.478;7.510;2023-11-21T00:53:56;20.02;;;9.27;;
39656;SDS011;25337;51.478;7.510;2023-11-21T00:56:22;19.50;;;8.60;;
39656;SDS011;25337;51.478;7.510;2023-11-21T00:58:49;26.90;;;9.50;;
39656;SDS011;25337;51.478;7.510;2023-11-21T01:01:17;20.33;;;8.73;;
39656;SDS011;25337;51.478;7.510;2023-11-21T01:03:43;24.10;;;9.00;;
39656;SDS011;25337;51.478;7.510;2023-11-21T01:06:11;20.98;;;8.50;;
39656;SDS011;25337;51.478;7.510;2023-11-21T01:08:37;23.42;;;9.90;;
39656;SDS011;25337;51.478;7.510;2023-11-21T01:11:03;22.70;;;9.60;;
39656;SDS011;25337;51.478;7.510;2023-11-21T01:13:29;23.85;;;10.23;;
39656;SDS011;25337;51.478;7.510;2023-11-21T01:15:55;24.95;;;10.27;;
39656;SDS011;25337;51.478;7.510;2023-11-21T01:18:21;26.38;;;9.23;;
39656;SDS011;25337;51.478;7.510;2023-11-21T01:20:47;22.50;;;9.57;;
39656;SDS011;25337;51.478;7.510;2023-11-21T01:23:13;20.75;;;9.82;;
39656;SDS011;25337;51.478;7.510;2023-11-21T01:25:41;28.75;;;11.00;;
39656;SDS011;25337;51.478;7.510;2023-11-21T01:28:06;29.50;;;11.10;;
39656;SDS011;25337;51.478;7.510;2023-11-21T01:30:32;28.02;;;10.35;;
39656;SDS011;25337;51.478;7.510;2023-11-21T01:32:58;25.70;;;10.75;;
39656;SDS011;25337;51.478;7.510;2023-11-21T01:35:24;26.98;;;10.88;;
39656;SDS011;25337;51.478;7.510;2023-11-21T01:37:49;28.48;;;11.32;;
39656;SDS011;25337;51.478;7.510;2023-11-21T01:40:15;25.50;;;9.90;;
39656;SDS011;25337;51.478;7.510;2023-11-21T01:42:41;26.77;;;11.32;;
39656;SDS011;25337;51.478;7.510;2023-11-21T01:45:12;25.92;;;10.27;;
39656;SDS011;25337;51.478;7.510;2023-11-21T01:47:38;27.10;;;9.95;;
39656;SDS011;25337;51.478;7.510;2023-11-21T01:50:06;26.73;;;10.30;;
39656;SDS011;25337;51.478;7.510;2023-11-21T01:52:36;25.02;;;9.55;;
39656;SDS011;25337;51.478;7.510;2023-11-21T01:55:03;25.73;;;10.77;;
39656;SDS011;25337;51.478;7.510;2023-11-21T01:57:31;29.45;;;11.00;;
39656;SDS011;25337;51.478;7.510;2023-11-21T01:59:57;30.48;;;11.27;;
39656;SDS011;25337;51.478;7.510;2023-11-21T02:02:40;27.00;;;10.57;;
39656;SDS011;25337;51.478;7.510;2023-11-21T02:05:12;26.42;;;11.60;;
39656;SDS011;25337;51.478;7.510;2023-11-21T02:07:39;25.17;;;11.38;;
39656;SDS011;25337;51.478;7.510;2023-11-21T02:10:07;30.98;;;11.05;;
39656;SDS011;25337;51.478;7.510;2023-11-21T02:12:34;37.75;;;13.00;;
39656;SDS011;25337;51.478;7.510;2023-11-21T02:15:00;32.15;;;11.65;;
39656;SDS011;25337;51.478;7.510;2023-11-21T02:17:30;29.88;;;11.48;;
39656;SDS011;25337;51.478;7.510;2023-11-21T02:19:57;24.90;;;9.75;;
39656;SDS011;25337;51.478;7.510;2023-11-21T02:22:23;29.50;;;12.45;;
39656;SDS011;25337;51.478;7.510;2023-11-21T02:27:19;24.95;;;11.90;;
39656;SDS011;25337;51.478;7.510;2023-11-21T02:29:46;31.75;;;12.40;;
39656;SDS011;25337;51.478;7.510;2023-11-21T02:32:12;27.38;;;11.52;;
39656;SDS011;25337;51.478;7.510;2023-11-21T02:34:42;28.30;;;12.50;;
39656;SDS011;25337;51.478;7.510;2023-11-21T02:37:08;34.80;;;13.18;;
39656;SDS011;25337;51.478;7.510;2023-11-21T02:39:35;30.73;;;13.05;;
39656;SDS011;25337;51.478;7.510;2023-11-21T02:42:00;32.95;;;12.57;;
39656;SDS011;25337;51.478;7.510;2023-11-21T02:44:26;34.47;;;13.13;;
39656;SDS011;25337;51.478;7.510;2023-11-21T02:46:51;36.58;;;13.70;;
39656;SDS011;25337;51.478;7.510;2023-11-21T02:49:17;32.33;;;13.70;;
39656;SDS011;25337;51.478;7.510;2023-11-21T02:51:43;43.25;;;16.00;;
39656;SDS011;25337;51.478;7.510;2023-11-21T02:54:08;37.78;;;14.52;;
39656;SDS011;25337;51.478;7.510;2023-11-21T02:56:34;44.40;;;15.80;;
39656;SDS011;25337;51.478;7.510;2023-11-21T02:59:00;36.22;;;14.70;;
39656;SDS011;25337;51.478;7.510;2023-11-21T03:01:26;38.83;;;15.18;;
39656;SDS011;25337;51.478;7.510;2023-11-21T03:03:52;41.78;;;14.73;;
39656;SDS011;25337;51.478;7.510;2023-11-21T03:06:18;46.65;;;14.82;;
39656;SDS011;25337;51.478;7.510;2023-11-21T03:08:44;42.50;;;14.10;;
39656;SDS011;25337;51.478;7.510;2023-11-21T03:11:10;42.60;;;14.07;;
39656;SDS011;25337;51.478;7.510;2023-11-21T03:13:35;41.45;;;14.25;;
39656;SDS011;25337;51.478;7.510;2023-11-21T03:16:01;39.78;;;14.90;;
39656;SDS011;25337;51.478;7.510;2023-11-21T03:18:27;35.08;;;13.48;;
39656;SDS011;25337;51.478;7.510;2023-11-21T03:20:55;37.28;;;14.27;;
39656;SDS011;25337;51.478;7.510;2023-11-21T03:23:20;39.88;;;14.70;;
39656;SDS011;25337;51.478;7.510;2023-11-21T03:25:46;39.15;;;14.43;;
39656;SDS011;25337;51.478;7.510;2023-11-21T03:28:11;39.95;;;13.63;;
39656;SDS011;25337;51.478;7.510;2023-11-21T03:30:38;37.22;;;13.60;;
39656;SDS011;25337;51.478;7.510;2023-11-21T03:33:03;39.88;;;14.27;;
39656;SDS011;25337;51.478;7.510;2023-11-21T03:35:29;37.88;;;13.63;;
39656;SDS011;25337;51.478;7.510;2023-11-21T03:37:54;28.98;;;12.27;;
39656;SDS011;25337;51.478;7.510;2023-11-21T03:40:21;39.33;;;13.70;;
39656;SDS011;25337;51.478;7.510;2023-11-21T03:42:47;35.13;;;14.75;;
39656;SDS011;25337;51.478;7.510;2023-11-21T03:45:12;38.67;;;14.18;;
39656;SDS011;25337;51.478;7.510;2023-11-21T03:47:41;44.85;;;15.40;;
39656;SDS011;25337;51.478;7.510;2023-11-21T03:50:10;36.80;;;14.48;;
39656;SDS011;25337;51.478;7.510;2023-11-21T03:52:35;43.05;;;14.70;;
39656;SDS011;25337;51.478;7.510;2023-11-21T03:55:02;40.38;;;15.43;;
39656;SDS011;25337;51.478;7.510;2023-11-21T03:57:28;36.55;;;13.75;;
39656;SDS011;25337;51.478;7.510;2023-11-21T03:59:53;40.90;;;15.18;;
39656;SDS011;25337;51.478;7.510;2023-11-21T04:02:19;39.58;;;16.00;;
39656;SDS011;25337;51.478;7.510;2023-11-21T04:04:45;44.58;;;16.10;;
39656;SDS011;25337;51.478;7.510;2023-11-21T04:07:10;41.63;;;15.75;;
39656;SDS011;25337;51.478;7.510;2023-11-21T04:09:39;36.40;;;14.85;;
39656;SDS011;25337;51.478;7.510;2023-11-21T04:12:06;46.45;;;14.90;;
39656;SDS011;25337;51.478;7.510;2023-11-21T04:14:33;43.13;;;14.75;;
39656;SDS011;25337;51.478;7.510;2023-11-21T04:16:59;42.30;;;14.50;;
39656;SDS011;25337;51.478;7.510;2023-11-21T04:19:25;40.22;;;15.18;;
39656;SDS011;25337;51.478;7.510;2023-11-21T04:21:50;43.97;;;15.05;;
39656;SDS011;25337;51.478;7.510;2023-11-21T04:24:16;41.35;;;14.68;;
39656;SDS011;25337;51.478;7.510;2023-11-21T04:26:43;39.45;;;15.15;;
39656;SDS011;25337;51.478;7.510;2023-11-21T04:29:10;44.72;;;15.48;;
39656;SDS011;25337;51.478;7.510;2023-11-21T04:31:36;41.28;;;13.88;;
39656;SDS011;25337;51.478;7.510;2023-11-21T04:34:02;43.38;;;14.18;;
39656;SDS011;25337;51.478;7.510;2023-11-21T04:36:29;40.95;;;15.07;;
39656;SDS011;25337;51.478;7.510;2023-11-21T04:38:58;41.17;;;14.23;;
39656;SDS011;25337;51.478;7.510;2023-11-21T04:41:23;37.83;;;14.38;;
39656;SDS011;25337;51.478;7.510;2023-11-21T04:43:52;36.35;;;14.02;;
39656;SDS011;25337;51.478;7.510;2023-11-21T04:46:17;35.83;;;14.35;;
39656;SDS011;25337;51.478;7.510;2023-11-21T04:48:43;40.90;;;13.52;;
39656;SDS011;25337;51.478;7.510;2023-11-21T04:51:09;44.90;;;14.50;;
39656;SDS011;25337;51.478;7.510;2023-11-21T04:53:36;37.55;;;13.02;;
39656;SDS011;25337;51.478;7.510;2023-11-21T04:56:02;33.92;;;13.43;;
39656;SDS011;25337;51.478;7.510;2023-11-21T04:58:28;30.40;;;13.45;;
39656;SDS011;25337;51.478;7.510;2023-11-21T05:00:54;38.03;;;13.55;;
39656;SDS011;25337;51.478;7.510;2023-11-21T05:03:19;43.63;;;15.00;;
39656;SDS011;25337;51.478;7.510;2023-11-21T05:05:45;33.83;;;14.13;;
39656;SDS011;25337;51.478;7.510;2023-11-21T05:08:11;37.40;;;14.65;;
39656;SDS011;25337;51.478;7.510;2023-11-21T05:10:36;39.72;;;13.75;;
39656;SDS011;25337;51.478;7.510;2023-11-21T05:13:04;41.28;;;14.15;;
39656;SDS011;25337;51.478;7.510;2023-11-21T05:15:34;37.00;;;14.25;;
39656;SDS011;25337;51.478;7.510;2023-11-21T05:18:00;33.22;;;12.65;;
39656;SDS011;25337;51.478;7.510;2023-11-21T05:20:28;39.28;;;14.20;;
39656;SDS011;25337;51.478;7.510;2023-11-21T05:22:53;38.85;;;13.70;;
39656;SDS011;25337;51.478;7.510;2023-11-21T05:25:19;34.60;;;14.15;;
39656;SDS011;25337;51.478;7.510;2023-11-21T05:27:48;34.10;;;13.18;;
39656;SDS011;25337;51.478;7.510;2023-11-21T05:30:13;36.75;;;13.02;;
39656;SDS011;25337;51.478;7.510;2023-11-21T05:32:39;31.33;;;13.27;;
39656;SDS011;25337;51.478;7.510;2023-11-21T05:35:09;37.50;;;14.20;;
39656;SDS011;25337;51.478;7.510;2023-11-21T05:37:39;43.50;;;15.27;;
39656;SDS011;25337;51.478;7.510;2023-11-21T05:40:05;39.08;;;14.02;;
39656;SDS011;25337;51.478;7.510;2023-11-21T05:42:32;34.70;;;14.95;;
39656;SDS011;25337;51.478;7.510;2023-11-21T05:44:58;35.38;;;13.73;;
39656;SDS011;25337;51.478;7.510;2023-11-21T05:47:34;41.08;;;14.15;;
39656;SDS011;25337;51.478;7.510;2023-11-21T05:50:05;36.45;;;14.02;;
39656;SDS011;25337;51.478;7.510;2023-11-21T05:52:34;36.53;;;13.60;;
39656;SDS011;25337;51.478;7.510;2023-11-21T05:55:00;42.10;;;14.63;;
39656;SDS011;25337;51.478;7.510;2023-11-21T05:57:26;36.92;;;14.13;;
39656;SDS011;25337;51.478;7.510;2023-11-21T05:59:51;36.25;;;13.38;;
39656;SDS011;25337;51.478;7.510;2023-11-21T06:02:17;38.30;;;13.57;;
39656;SDS011;25337;51.478;7.510;2023-11-21T06:04:45;40.67;;;15.18;;
39656;SDS011;25337;51.478;7.510;2023-11-21T06:07:10;41.78;;;14.50;;
39656;SDS011;25337;51.478;7.510;2023-11-21T06:09:36;44.08;;;15.50;;
39656;SDS011;25337;51.478;7.510;2023-11-21T06:12:02;42.58;;;14.40;;
39656;SDS011;25337;51.478;7.510;2023-11-21T06:14:29;39.42;;;14.00;;
39656;SDS011;25337;51.478;7.510;2023-11-21T06:16:54;39.25;;;13.77;;
39656;SDS011;25337;51.478;7.510;2023-11-21T06:19:21;41.30;;;14.93;;
39656;SDS011;25337;51.478;7.510;2023-11-21T06:21:47;44.40;;;13.95;;
39656;SDS011;25337;51.478;7.510;2023-11-21T06:24:13;39.22;;;14.05;;
39656;SDS011;25337;51.478;7.510;2023-11-21T06:26:40;40.67;;;13.98;;
39656;SDS011;25337;51.478;7.510;2023-11-21T06:29:06;42.72;;;15.98;;
39656;SDS011;25337;51.478;7.510;2023-11-21T06:31:35;47.30;;;15.73;;
39656;SDS011;25337;51.478;7.510;2023-11-21T06:34:00;36.22;;;13.82;;
39656;SDS011;25337;51.478;7.510;2023-11-21T06:36:26;44.50;;;14.93;;
39656;SDS011;25337;51.478;7.510;2023-11-21T06:38:52;40.88;;;15.52;;
39656;SDS011;25337;51.478;7.510;2023-11-21T06:41:17;43.83;;;15.68;;
39656;SDS011;25337;51.478;7.510;2023-11-21T06:43:43;51.03;;;16.45;;
39656;SDS011;25337;51.478;7.510;2023-11-21T06:46:11;42.80;;;15.98;;
39656;SDS011;25337;51.478;7.510;2023-11-21T06:48:42;51.28;;;16.60;;
39656;SDS011;25337;51.478;7.510;2023-11-21T06:51:08;52.53;;;17.05;;
39656;SDS011;25337;51.478;7.510;2023-11-21T06:53:34;48.83;;;16.08;;
39656;SDS011;25337;51.478;7.510;2023-11-21T06:56:01;47.45;;;15.32;;
39656;SDS011;25337;51.478;7.510;2023-11-21T06:58:27;46.72;;;15.20;;
39656;SDS011;25337;51.478;7.510;2023-11-21T07:00:53;45.47;;;15.20;;
39656;SDS011;25337;51.478;7.510;2023-11-21T07:03:19;41.88;;;14.38;;
39656;SDS011;25337;51.478;7.510;2023-11-21T07:05:45;41.92;;;15.57;;
39656;SDS011;25337;51.478;7.510;2023-11-21T07:08:11;43.35;;;15.55;;
39656;SDS011;25337;51.478;7.510;2023-11-21T07:10:37;40.20;;;15.25;;
39656;SDS011;25337;51.478;7.510;2023-11-21T07:13:03;43.78;;;15.57;;
39656;SDS011;25337;51.478;7.510;2023-11-21T07:15:29;45.42;;;16.73;;
39656;SDS011;25337;51.478;7.510;2023-11-21T07:17:54;52.70;;;18.30;;
39656;SDS011;25337;51.478;7.510;2023-11-21T07:20:20;54.63;;;17.55;;
39656;SDS011;25337;51.478;7.510;2023-11-21T07:22:48;45.22;;;16.67;;
39656;SDS011;25337;51.478;7.510;2023-11-21T07:25:14;50.08;;;17.13;;
39656;SDS011;25337;51.478;7.510;2023-11-21T07:27:39;49.45;;;16.58;;
39656;SDS011;25337;51.478;7.510;2023-11-21T07:30:05;49.15;;;18.63;;
39656;SDS011;25337;51.478;7.510;2023-11-21T07:32:33;58.58;;;18.80;;
39656;SDS011;25337;51.478;7.510;2023-11-21T07:34:59;47.10;;;17.05;;
39656;SDS011;25337;51.478;7.510;2023-11-21T07:37:25;47.47;;;17.15;;
39656;SDS011;25337;51.478;7.510;2023-11-21T07:39:53;43.88;;;15.85;;
39656;SDS011;25337;51.478;7.510;2023-11-21T07:42:21;47.13;;;16.58;;
39656;SDS011;25337;51.478;7.510;2023-11-21T07:44:49;46.08;;;16.25;;
39656;SDS011;25337;51.478;7.510;2023-11-21T07:47:15;41.70;;;15.40;;
39656;SDS011;25337;51.478;7.510;2023-11-21T07:49:40;44.22;;;16.50;;
39656;SDS011;25337;51.478;7.510;2023-11-21T07:52:08;49.70;;;18.58;;
39656;SDS011;25337;51.478;7.510;2023-11-21T07:54:34;49.70;;;20.75;;
39656;SDS011;25337;51.478;7.510;2023-11-21T07:57:01;46.50;;;20.13;;
39656;SDS011;25337;51.478;7.510;2023-11-21T07:59:29;43.03;;;17.33;;
39656;SDS011;25337;51.478;7.510;2023-11-21T08:01:54;53.35;;;17.63;;
39656;SDS011;25337;51.478;7.510;2023-11-21T08:04:20;47.20;;;17.60;;
39656;SDS011;25337;51.478;7.510;2023-11-21T08:06:46;45.97;;;17.40;;
39656;SDS011;25337;51.478;7.510;2023-11-21T08:09:11;47.70;;;16.55;;
39656;SDS011;25337;51.478;7.510;2023-11-21T08:11:37;47.42;;;17.77;;
39656;SDS011;25337;51.478;7.510;2023-11-21T08:14:03;44.05;;;17.20;;
39656;SDS011;25337;51.478;7.510;2023-11-21T08:16:30;49.97;;;17.48;;
39656;SDS011;25337;51.478;7.510;2023-11-21T08:18:55;42.70;;;17.27;;
39656;SDS011;25337;51.478;7.510;2023-11-21T08:21:24;51.38;;;16.10;;
39656;SDS011;25337;51.478;7.510;2023-11-21T08:23:49;45.95;;;15.88;;
39656;SDS011;25337;51.478;7.510;2023-11-21T08:26:19;47.28;;;16.65;;
39656;SDS011;25337;51.478;7.510;2023-11-21T08:28:45;47.70;;;15.98;;
39656;SDS011;25337;51.478;7.510;2023-11-21T08:31:12;42.15;;;15.82;;
39656;SDS011;25337;51.478;7.510;2023-11-21T08:33:38;47.50;;;16.33;;
39656;SDS011;25337;51.478;7.510;2023-11-21T08:36:07;45.92;;;15.55;;
39656;SDS011;25337;51.478;7.510;2023-11-21T08:38:34;46.58;;;15.05;;
39656;SDS011;25337;51.478;7.510;2023-11-21T08:41:02;40.00;;;15.73;;
39656;SDS011;25337;51.478;7.510;2023-11-21T08:43:35;47.22;;;17.05;;
39656;SDS011;25337;51.478;7.510;2023-11-21T08:46:04;46.27;;;16.00;;
39656;SDS011;25337;51.478;7.510;2023-11-21T08:48:36;47.95;;;16.27;;
39656;SDS011;25337;51.478;7.510;2023-11-21T08:51:02;40.83;;;15.30;;
39656;SDS011;25337;51.478;7.510;2023-11-21T08:53:29;40.13;;;15.48;;
39656;SDS011;25337;51.478;7.510;2023-11-21T08:55:55;50.72;;;17.58;;
39656;SDS011;25337;51.478;7.510;2023-11-21T08:58:21;46.20;;;15.60;;
39656;SDS011;25337;51.478;7.510;2023-11-21T09:00:47;48.10;;;15.68;;
39656;SDS011;25337;51.478;7.510;2023-11-21T09:03:13;43.10;;;16.42;;
39656;SDS011;25337;51.478;7.510;2023-11-21T09:05:39;40.13;;;16.08;;
39656;SDS011;25337;51.478;7.510;2023-11-21T09:08:05;49.53;;;16.55;;
39656;SDS011;25337;51.478;7.510;2023-11-21T09:10:31;45.33;;;16.25;;
39656;SDS011;25337;51.478;7.510;2023-11-21T09:13:00;47.35;;;17.23;;
39656;SDS011;25337;51.478;7.510;2023-11-21T09:15:26;41.30;;;15.63;;
39656;SDS011;25337;51.478;7.510;2023-11-21T09:17:52;44.72;;;16.60;;
39656;SDS011;25337;51.478;7.510;2023-11-21T09:20:18;50.65;;;17.77;;
39656;SDS011;25337;51.478;7.510;2023-11-21T09:22:47;49.47;;;16.17;;
39656;SDS011;25337;51.478;7.510;2023-11-21T09:25:14;46.88;;;16.88;;
39656;SDS011;25337;51.478;7.510;2023-11-21T09:27:42;43.95;;;15.90;;
39656;SDS011;25337;51.478;7.510;2023-11-21T09:30:07;41.75;;;15.70;;
39656;SDS011;25337;51.478;7.510;2023-11-21T09:32:36;41.72;;;17.10;;
39656;SDS011;25337;51.478;7.510;2023-11-21T09:35:06;45.97;;;15.15;;
39656;SDS011;25337;51.478;7.510;2023-11-21T09:37:34;44.15;;;15.35;;
39656;SDS011;25337;51.478;7.510;2023-11-21T09:40:02;39.97;;;15.05;;
39656;SDS011;25337;51.478;7.510;2023-11-21T09:42:31;37.85;;;14.95;;
39656;SDS011;25337;51.478;7.510;2023-11-21T09:47:52;44.80;;;14.70;;
39656;SDS011;25337;51.478;7.510;2023-11-21T09:50:20;39.95;;;14.98;;
39656;SDS011;25337;51.478;7.510;2023-11-21T09:55:26;47.05;;;14.25;;
39656;SDS011;25337;51.478;7.510;2023-11-21T09:57:54;43.85;;;14.68;;
39656;SDS011;25337;51.478;7.510;2023-11-21T10:00:22;52.60;;;16.45;;
39656;SDS011;25337;51.478;7.510;2023-11-21T10:02:49;51.58;;;15.73;;
39656;SDS011;25337;51.478;7.510;2023-11-21T10:05:16;42.08;;;15.65;;
39656;SDS011;25337;51.478;7.510;2023-11-21T10:07:45;42.67;;;16.17;;
39656;SDS011;25337;51.478;7.510;2023-11-21T10:10:11;50.83;;;17.10;;
39656;SDS011;25337;51.478;7.510;2023-11-21T10:12:38;45.58;;;16.63;;
39656;SDS011;25337;51.478;7.510;2023-11-21T10:15:07;48.42;;;16.42;;
39656;SDS011;25337;51.478;7.510;2023-11-21T10:17:38;49.08;;;17.15;;
39656;SDS011;25337;51.478;7.510;2023-11-21T10:22:37;46.83;;;17.13;;
39656;SDS011;25337;51.478;7.510;2023-11-21T10:25:07;42.05;;;15.35;;
39656;SDS011;25337;51.478;7.510;2023-11-21T10:27:34;53.25;;;17.98;;
39656;SDS011;25337;51.478;7.510;2023-11-21T10:30:01;50.75;;;17.80;;
39656;SDS011;25337;51.478;7.510;2023-11-21T10:32:29;56.85;;;18.35;;
39656;SDS011;25337;51.478;7.510;2023-11-21T10:34:58;49.65;;;17.85;;
39656;SDS011;25337;51.478;7.510;2023-11-21T10:37:31;55.97;;;18.38;;
39656;SDS011;25337;51.478;7.510;2023-11-21T10:40:01;56.75;;;19.45;;
39656;SDS011;25337;51.478;7.510;2023-11-21T10:42:27;50.50;;;18.00;;
39656;SDS011;25337;51.478;7.510;2023-11-21T10:44:53;56.90;;;18.50;;
39656;SDS011;25337;51.478;7.510;2023-11-21T10:47:19;53.95;;;19.10;;
39656;SDS011;25337;51.478;7.510;2023-11-21T10:49:50;51.95;;;18.40;;
39656;SDS011;25337;51.478;7.510;2023-11-21T10:52:18;51.75;;;19.27;;
39656;SDS011;25337;51.478;7.510;2023-11-21T10:54:45;53.08;;;18.75;;
39656;SDS011;25337;51.478;7.510;2023-11-21T10:57:11;56.17;;;18.52;;
39656;SDS011;25337;51.478;7.510;2023-11-21T10:59:42;57.22;;;19.00;;
39656;SDS011;25337;51.478;7.510;2023-11-21T11:02:25;55.00;;;20.75;;
39656;SDS011;25337;51.478;7.510;2023-11-21T11:04:53;55.70;;;19.25;;
39656;SDS011;25337;51.478;7.510;2023-11-21T11:07:21;55.85;;;21.30;;
39656;SDS011;25337;51.478;7.510;2023-11-21T11:09:50;52.53;;;18.15;;
39656;SDS011;25337;51.478;7.510;2023-11-21T11:12:17;57.50;;;19.40;;
39656;SDS011;25337;51.478;7.510;2023-11-21T11:14:44;60.60;;;18.75;;
39656;SDS011;25337;51.478;7.510;2023-11-21T11:17:10;64.95;;;21.02;;
39656;SDS011;25337;51.478;7.510;2023-11-21T11:19:36;55.42;;;19.35;;
39656;SDS011;25337;51.478;7.510;2023-11-21T11:33:48;59.70;;;20.88;;
39656;SDS011;25337;51.478;7.510;2023-11-21T11:36:34;66.07;;;23.10;;
39656;SDS011;25337;51.478;7.510;2023-11-21T11:39:26;77.53;;;24.30;;
39656;SDS011;25337;51.478;7.510;2023-11-21T11:42:01;66.68;;;22.88;;
39656;SDS011;25337;51.478;7.510;2023-11-21T11:47:16;76.60;;;23.90;;
39656;SDS011;25337;51.478;7.510;2023-11-21T11:50:07;69.65;;;22.98;;
39656;SDS011;25337;51.478;7.510;2023-11-21T11:52:50;63.63;;;23.13;;
39656;SDS011;25337;51.478;7.510;2023-11-21T11:55:20;72.63;;;24.13;;
39656;SDS011;25337;51.478;7.510;2023-11-21T11:57:48;65.53;;;23.15;;
39656;SDS011;25337;51.478;7.510;2023-11-21T12:02:54;76.72;;;24.50;;
39656;SDS011;25337;51.478;7.510;2023-11-21T12:05:25;86.97;;;29.58;;
39656;SDS011;25337;51.478;7.510;2023-11-21T12:07:56;82.18;;;26.73;;
39656;SDS011;25337;51.478;7.510;2023-11-21T12:10:26;79.88;;;26.20;;
39656;SDS011;25337;51.478;7.510;2023-11-21T12:13:04;72.20;;;25.33;;
39656;SDS011;25337;51.478;7.510;2023-11-21T12:15:32;77.32;;;23.77;;
39656;SDS011;25337;51.478;7.510;2023-11-21T12:18:00;70.05;;;24.85;;
39656;SDS011;25337;51.478;7.510;2023-11-21T12:20:28;70.85;;;24.42;;
39656;SDS011;25337;51.478;7.510;2023-11-21T12:22:56;64.47;;;20.30;;
39656;SDS011;25337;51.478;7.510;2023-11-21T12:25:26;73.13;;;22.60;;
39656;SDS011;25337;51.478;7.510;2023-11-21T12:27:54;63.10;;;21.52;;
39656;SDS011;25337;51.478;7.510;2023-11-21T12:30:21;61.67;;;21.48;;
39656;SDS011;25337;51.478;7.510;2023-11-21T12:32:52;60.58;;;19.88;;
39656;SDS011;25337;51.478;7.510;2023-11-21T12:35:25;62.67;;;21.23;;
39656;SDS011;25337;51.478;7.510;2023-11-21T12:40:24;48.90;;;17.38;;
39656;SDS011;25337;51.478;7.510;2023-11-21T12:42:52;56.53;;;18.20;;
39656;SDS011;25337;51.478;7.510;2023-11-21T12:45:19;51.38;;;18.58;;
39656;SDS011;25337;51.478;7.510;2023-11-21T12:47:50;44.20;;;16.88;;
39656;SDS011;25337;51.478;7.510;2023-11-21T12:50:29;44.88;;;16.85;;
39656;SDS011;25337;51.478;7.510;2023-11-21T12:53:02;45.58;;;16.77;;
39656;SDS011;25337;51.478;7.510;2023-11-21T12:55:37;43.10;;;16.23;;
39656;SDS011;25337;51.478;7.510;2023-11-21T12:58:07;47.53;;;17.20;;
39656;SDS011;25337;51.478;7.510;2023-11-21T13:00:35;44.28;;;15.40;;
39656;SDS011;25337;51.478;7.510;2023-11-21T13:03:02;37.85;;;14.52;;
39656;SDS011;25337;51.478;7.510;2023-11-21T13:05:30;45.83;;;15.65;;
39656;SDS011;25337;51.478;7.510;2023-11-21T13:08:03;46.45;;;15.63;;
39656;SDS011;25337;51.478;7.510;2023-11-21T13:10:32;50.60;;;15.73;;
39656;SDS011;25337;51.478;7.510;2023-11-21T13:13:01;39.20;;;15.68;;
39656;SDS011;25337;51.478;7.510;2023-11-21T13:15:30;39.35;;;14.10;;
39656;SDS011;25337;51.478;7.510;2023-11-21T13:17:58;50.30;;;16.15;;
39656;SDS011;25337;51.478;7.510;2023-11-21T13:20:24;39.38;;;14.60;;
39656;SDS011;25337;51.478;7.510;2023-11-21T13:22:54;45.50;;;16.13;;
39656;SDS011;25337;51.478;7.510;2023-11-21T13:25:24;39.92;;;14.27;;
39656;SDS011;25337;51.478;7.510;2023-11-21T13:27:52;39.63;;;14.43;;
39656;SDS011;25337;51.478;7.510;2023-11-21T13:30:21;39.95;;;12.57;;
39656;SDS011;25337;51.478;7.510;2023-11-21T13:35:18;38.47;;;14.20;;
39656;SDS011;25337;51.478;7.510;2023-11-21T13:37:55;37.75;;;11.82;;
39656;SDS011;25337;51.478;7.510;2023-11-21T13:40:24;39.28;;;13.18;;
39656;SDS011;25337;51.478;7.510;2023-11-21T13:42:53;37.67;;;11.95;;
39656;SDS011;25337;51.478;7.510;2023-11-21T13:45:22;37.72;;;12.60;;
39656;SDS011;25337;51.478;7.510;2023-11-21T13:47:52;36.25;;;13.07;;
39656;SDS011;25337;51.478;7.510;2023-11-21T13:50:24;38.30;;;13.43;;
39656;SDS011;25337;51.478;7.510;2023-11-21T13:52:59;35.53;;;12.45;;
39656;SDS011;25337;51.478;7.510;2023-11-21T13:55:43;36.08;;;12.40;;
39656;SDS011;25337;51.478;7.510;2023-11-21T13:58:10;35.03;;;12.68;;
39656;SDS011;25337;51.478;7.510;2023-11-21T14:00:41;38.55;;;12.43;;
39656;SDS011;25337;51.478;7.510;2023-11-21T14:03:13;40.25;;;11.50;;
39656;SDS011;25337;51.478;7.510;2023-11-21T14:05:57;30.88;;;12.80;;
39656;SDS011;25337;51.478;7.510;2023-11-21T14:08:23;25.10;;;9.55;;
39656;SDS011;25337;51.478;7.510;2023-11-21T14:10:53;31.42;;;11.05;;
39656;SDS011;25337;51.478;7.510;2023-11-21T14:13:23;32.22;;;10.80;;
39656;SDS011;25337;51.478;7.510;2023-11-21T14:15:49;29.02;;;10.43;;
39656;SDS011;25337;51.478;7.510;2023-11-21T14:18:19;23.73;;;8.45;;
39656;SDS011;25337;51.478;7.510;2023-11-21T14:20:52;28.73;;;10.98;;
39656;SDS011;25337;51.478;7.510;2023-11-21T14:23:18;28.45;;;10.23;;
39656;SDS011;25337;51.478;7.510;2023-11-21T14:25:43;27.45;;;9.50;;
39656;SDS011;25337;51.478;7.510;2023-11-21T14:28:09;27.92;;;9.68;;
39656;SDS011;25337;51.478;7.510;2023-11-21T14:30:37;29.65;;;10.02;;
39656;SDS011;25337;51.478;7.510;2023-11-21T14:33:04;27.63;;;10.32;;
39656;SDS011;25337;51.478;7.510;2023-11-21T14:35:31;34.33;;;11.77;;
39656;SDS011;25337;51.478;7.510;2023-11-21T14:37:58;32.25;;;12.95;;
39656;SDS011;25337;51.478;7.510;2023-11-21T14:40:24;25.92;;;9.40;;
39656;SDS011;25337;51.478;7.510;2023-11-21T14:42:50;24.00;;;8.30;;
39656;SDS011;25337;51.478;7.510;2023-11-21T14:45:22;27.38;;;10.02;;
39656;SDS011;25337;51.478;7.510;2023-11-21T14:47:51;21.77;;;8.40;;
39656;SDS011;25337;51.478;7.510;2023-11-21T14:50:41;20.70;;;6.60;;
39656;SDS011;25337;51.478;7.510;2023-11-21T14:53:11;20.15;;;7.22;;
39656;SDS011;25337;51.478;7.510;2023-11-21T14:55:40;19.15;;;7.30;;
39656;SDS011;25337;51.478;7.510;2023-11-21T14:58:15;19.25;;;6.72;;